createdAt,value
2023-04-02T00:00:19.875Z,0.75
2023-04-02T00:03:44.496Z,0.88
2023-04-02T00:06:45.149Z,0.75
2023-04-02T00:09:38.019Z,0.88
2023-04-02T00:12:26.319Z,0.88
2023-04-02T00:15:15.242Z,0.88
2023-04-02T00:18:06.339Z,0.94
2023-04-02T00:21:14.579Z,0.81
2023-04-02T00:24:14.494Z,0.81
2023-04-02T00:27:02.847Z,0.69
2023-04-02T00:29:55.200Z,0.75
2023-04-02T00:32:46.144Z,0.81
2023-04-02T00:35:39.653Z,0.75
2023-04-02T00:38:34.401Z,0.81
2023-04-02T00:41:31.082Z,0.75
2023-04-02T00:44:24.168Z,0.81
2023-04-02T00:47:34.878Z,0.81
2023-04-02T00:50:41.216Z,0.81
2023-04-02T00:53:32.050Z,0.81
2023-04-02T00:56:31.624Z,0.88
2023-04-02T00:59:32.018Z,0.94
2023-04-02T01:02:33.032Z,0.88
2023-04-02T01:05:23.942Z,0.94
2023-04-02T01:08:52.821Z,1.00
2023-04-02T01:12:01.326Z,1.00
2023-04-02T01:15:51.912Z,1.06
2023-04-02T01:19:13.925Z,0.94
2023-04-02T01:22:02.212Z,1.06
2023-04-02T01:24:50.560Z,1.06
2023-04-02T01:28:10.444Z,1.13
2023-04-02T01:31:02.431Z,1.19
2023-04-02T01:33:50.935Z,1.25
2023-04-02T01:37:11.604Z,1.31
2023-04-02T01:40:13.224Z,1.38
2023-04-02T01:43:17.222Z,1.50
2023-04-02T01:46:26.101Z,1.56
2023-04-02T01:49:18.947Z,1.44
2023-04-02T01:52:08.072Z,1.44
2023-04-02T01:54:57.820Z,1.56
2023-04-02T01:57:53.815Z,1.44
2023-04-02T02:00:55.885Z,1.44
2023-04-02T02:03:45.351Z,1.50
2023-04-02T02:06:33.927Z,1.56
2023-04-02T02:09:27.066Z,1.63
2023-04-02T02:12:16.506Z,1.56
2023-04-02T02:15:13.566Z,1.56
2023-04-02T02:18:11.514Z,1.56
2023-04-02T02:21:05.125Z,1.56
2023-04-02T02:23:56.306Z,1.69
2023-04-02T02:26:47.733Z,1.69
2023-04-02T02:29:41.177Z,1.69
2023-04-02T02:32:33.348Z,1.69
2023-04-02T02:35:29.857Z,1.75
2023-04-02T02:38:38.943Z,1.75
2023-04-02T02:41:45.781Z,1.75
2023-04-02T02:44:42.079Z,1.81
2023-04-02T02:47:35.118Z,1.75
2023-04-02T02:50:32.001Z,1.81
2023-04-02T02:53:25.303Z,1.81
2023-04-02T02:56:16.634Z,1.81
2023-04-02T02:59:11.825Z,1.75
2023-04-02T03:02:09.394Z,1.88
2023-04-02T03:05:18.120Z,1.81
2023-04-02T03:08:30.537Z,1.94
2023-04-02T03:11:44.431Z,1.94
2023-04-02T03:14:49.201Z,1.94
2023-04-02T03:17:49.440Z,1.88
2023-04-02T03:20:58.557Z,1.94
2023-04-02T03:23:55.107Z,1.88
2023-04-02T03:27:11.092Z,1.88
2023-04-02T03:30:47.948Z,1.88
2023-04-02T03:33:48.068Z,1.94
2023-04-02T03:36:51.362Z,1.88
2023-04-02T03:39:55.854Z,2.00
2023-04-02T03:43:19.515Z,2.00
2023-04-02T03:46:28.828Z,1.94
2023-04-02T03:49:34.448Z,2.00
2023-04-02T03:52:29.681Z,2.00
2023-04-02T03:55:26.301Z,2.06
2023-04-02T03:58:27.435Z,2.06
2023-04-02T04:02:08.029Z,2.00
2023-04-02T04:04:58.632Z,2.00
2023-04-02T04:07:50.486Z,2.00
2023-04-02T04:10:43.459Z,2.06
2023-04-02T04:13:47.422Z,2.00
2023-04-02T04:17:23.962Z,2.06
2023-04-02T04:20:28.731Z,2.06
2023-04-02T04:23:32.744Z,2.00
2023-04-02T04:26:35.116Z,2.00
2023-04-02T04:29:58.671Z,2.00
2023-04-02T04:33:23.167Z,2.06
2023-04-02T04:36:31.689Z,2.06
2023-04-02T04:39:34.918Z,2.06
2023-04-02T04:42:38.172Z,2.06
2023-04-02T04:45:40.357Z,2.06
2023-04-02T04:48:42.866Z,2.13
2023-04-02T04:51:46.996Z,2.19
2023-04-02T04:54:39.441Z,2.19
2023-04-02T04:57:37.113Z,2.25
2023-04-02T05:00:51.353Z,2.19
2023-04-02T05:04:06.522Z,2.13
2023-04-02T05:07:07.608Z,2.19
2023-04-02T05:10:31.043Z,2.13
2023-04-02T05:13:34.846Z,2.25
2023-04-02T05:16:54.599Z,2.25
2023-04-02T05:19:53.636Z,2.31
2023-04-02T05:23:58.064Z,2.50
2023-04-02T05:26:50.950Z,2.44
2023-04-02T05:29:45.669Z,2.50
2023-04-02T05:32:47.185Z,2.56
2023-04-02T05:35:41.071Z,2.38
2023-04-02T05:38:33.282Z,2.38
2023-04-02T05:41:39.257Z,2.44
2023-04-02T05:44:36.832Z,2.50
2023-04-02T05:47:32.172Z,2.56
2023-04-02T05:50:48.523Z,2.63
2023-04-02T05:53:56.350Z,2.56
2023-04-02T05:56:49.846Z,2.56
2023-04-02T05:59:47.559Z,2.56
2023-04-02T06:03:09.186Z,2.56
2023-04-02T06:06:04.646Z,2.69
2023-04-02T06:09:12.500Z,2.94
2023-04-02T06:12:38.012Z,3.00
2023-04-02T06:15:26.990Z,3.00
2023-04-02T06:18:25.145Z,3.06
2023-04-02T06:21:17.659Z,2.94
2023-04-02T06:24:19.734Z,3.06
2023-04-02T06:27:12.552Z,3.13
2023-04-02T06:30:06.891Z,3.06
2023-04-02T06:32:54.337Z,3.00
2023-04-02T06:36:23.706Z,3.13
2023-04-02T06:39:22.600Z,3.13
2023-04-02T06:42:21.810Z,3.13
2023-04-02T06:45:42.903Z,3.31
2023-04-02T06:49:06.956Z,3.25
2023-04-02T06:51:58.464Z,3.13
2023-04-02T06:54:46.827Z,3.56
2023-04-02T06:57:35.435Z,3.63
2023-04-02T07:00:45.222Z,3.94
2023-04-02T07:03:53.498Z,4.19
2023-04-02T07:07:06.634Z,4.13
2023-04-02T07:09:57.311Z,4.13
2023-04-02T07:12:44.183Z,4.13
2023-04-02T07:15:32.257Z,4.25
2023-04-02T07:18:31.475Z,4.94
2023-04-02T07:21:21.710Z,5.13
2023-04-02T07:24:36.644Z,5.31
2023-04-02T07:27:25.773Z,5.00
2023-04-02T07:30:13.109Z,5.25
2023-04-02T07:33:05.309Z,5.69
2023-04-02T07:35:54.640Z,5.75
2023-04-02T07:38:42.018Z,5.50
2023-04-02T07:41:29.750Z,5.69
2023-04-02T07:44:16.765Z,5.75
2023-04-02T07:47:04.469Z,5.75
2023-04-02T07:49:54.074Z,5.38
2023-04-02T07:52:42.057Z,5.88
2023-04-02T07:55:31.890Z,5.75
2023-04-02T07:58:18.962Z,5.69
2023-04-02T08:01:25.587Z,5.88
2023-04-02T08:04:30.909Z,6.06
2023-04-02T08:07:18.572Z,6.25
2023-04-02T08:10:14.365Z,6.00
2023-04-02T08:13:01.262Z,5.81
2023-04-02T08:15:48.376Z,6.44
2023-04-02T08:18:38.453Z,7.50
2023-04-02T08:21:25.742Z,7.63
2023-04-02T08:24:23.659Z,7.38
2023-04-02T08:27:14.672Z,7.88
2023-04-02T08:30:01.792Z,8.44
2023-04-02T08:32:48.923Z,11.06
2023-04-02T08:35:36.613Z,13.06
2023-04-02T08:38:25.365Z,14.38
2023-04-02T08:41:28.135Z,14.63
2023-04-02T08:44:36.243Z,15.13
2023-04-02T08:47:29.422Z,17.06
2023-04-02T08:50:36.065Z,17.00
2023-04-02T08:53:30.550Z,19.00
2023-04-02T08:56:51.880Z,20.00
2023-04-02T08:59:42.957Z,18.56
2023-04-02T09:02:57.089Z,20.50
2023-04-02T09:05:46.695Z,19.13
2023-04-02T09:08:35.091Z,19.69
2023-04-02T09:11:41.308Z,19.50
2023-04-02T09:15:17.922Z,20.69
2023-04-02T09:18:17.571Z,19.19
2023-04-02T09:21:41.355Z,21.13
2023-04-02T09:24:28.444Z,18.31
2023-04-02T09:27:22.817Z,21.69
2023-04-02T09:30:12.724Z,20.31
2023-04-02T09:33:09.269Z,18.69
2023-04-02T09:35:57.306Z,20.38
2023-04-02T09:39:00.863Z,21.25
2023-04-02T09:41:59.075Z,21.00
2023-04-02T09:44:52.468Z,25.38
2023-04-02T09:47:42.290Z,27.25
2023-04-02T09:50:32.934Z,28.13
2023-04-02T09:53:32.750Z,28.06
2023-04-02T09:56:23.648Z,27.69
2023-04-02T09:59:13.376Z,28.94
2023-04-02T10:02:03.149Z,25.19
2023-04-02T10:04:51.159Z,25.50
2023-04-02T10:07:48.798Z,26.06
2023-04-02T10:10:45.783Z,24.81
2023-04-02T10:13:55.956Z,26.50
2023-04-02T10:17:24.588Z,29.25
2023-04-02T10:20:25.902Z,26.63
2023-04-02T10:23:17.934Z,29.63
2023-04-02T10:26:38.026Z,30.06
2023-04-02T10:29:51.100Z,30.06
2023-04-02T10:32:56.452Z,33.75
2023-04-02T10:36:20.988Z,34.31
2023-04-02T10:39:26.843Z,32.44
2023-04-02T10:42:44.419Z,32.88
2023-04-02T10:45:48.641Z,31.88
2023-04-02T10:48:57.365Z,29.81
2023-04-02T10:52:13.226Z,31.75
2023-04-02T10:55:34.687Z,27.50
2023-04-02T10:58:28.886Z,25.81
2023-04-02T11:01:23.373Z,29.69
2023-04-02T11:04:45.712Z,26.63
2023-04-02T11:07:52.747Z,24.19
2023-04-02T11:10:46.831Z,27.50
2023-04-02T11:13:48.803Z,22.50
2023-04-02T11:16:39.358Z,20.63
2023-04-02T11:19:32.584Z,26.06
2023-04-02T11:22:24.390Z,24.13
2023-04-02T11:25:22.674Z,29.25
2023-04-02T11:28:31.220Z,27.38
2023-04-02T11:31:21.414Z,22.63
2023-04-02T11:34:40.385Z,18.44
2023-04-02T11:37:46.691Z,25.19
2023-04-02T11:40:57.535Z,23.38
2023-04-02T11:43:49.036Z,18.94
